Time;durP1;ratioP1;P1;durP2;ratioP2;P2;SDS_P1;SDS_P2;PMS_P1;PMS_P2;Temp;Humidity;BMP_temperature;BMP_pressure;BME280_temperature;BME280_humidity;BME280_pressure;Samples;Min_cycle;Max_cycle;Signal;HPM_P1;HPM_P2
2023/10/09 00:00:55;;;;;;;8.00;1.60;;;;;;;18.89;47.69;93896.97;528325;28;673;-49
2023/10/09 00:01:14;;;;;;;1.80;1.20;;;;;;;18.89;47.71;93899.75;528318;28;909;-48
2023/10/09 00:01:31;;;;;;;2.40;1.00;;;;;;;18.88;47.63;93898.31;528330;28;874;-48
2023/10/09 00:01:46;;;;;;;4.40;1.10;;;;;;;18.86;47.80;93898.88;528321;28;1035;-48
2023/10/09 00:02:06;;;;;;;3.83;1.20;;;;;;;18.86;47.79;93898.88;528284;28;817;-47
2023/10/09 00:02:21;;;;;;;1.92;1.10;;;;;;;18.85;47.71;93896.69;528209;28;976;-49
2023/10/09 00:02:37;;;;;;;1.57;0.93;;;;;;;18.84;47.60;93890.34;528316;28;915;-48
2023/10/09 00:02:54;;;;;;;4.18;1.10;;;;;;;18.84;47.63;93895.94;528250;28;848;-48
2023/10/09 00:03:09;;;;;;;4.80;1.15;;;;;;;18.84;47.71;93898.75;528254;28;914;-50
2023/10/09 00:03:27;;;;;;;3.30;0.90;;;;;;;18.84;47.62;93900.81;528247;28;1098;-47
2023/10/09 00:03:44;;;;;;;2.65;1.08;;;;;;;18.81;47.82;93894.34;528259;28;864;-48
2023/10/09 00:04:02;;;;;;;2.25;1.30;;;;;;;18.81;47.82;93893.59;528289;28;888;-48
2023/10/09 00:04:17;;;;;;;3.67;1.15;;;;;;;18.79;47.58;93888.63;528384;28;832;-48
2023/10/09 00:04:36;;;;;;;5.00;1.23;;;;;;;18.78;47.80;93905.97;528215;28;944;-47
2023/10/09 00:04:51;;;;;;;3.50;1.20;;;;;;;18.77;47.84;93894.06;528286;28;949;-47
2023/10/09 00:05:11;;;;;;;1.20;0.97;;;;;;;18.75;47.66;93895.97;528326;28;790;-48
2023/10/09 00:05:45;;;;;;;1.65;0.98;;;;;;;18.71;47.83;93893.63;528351;28;862;-48
2023/10/09 00:06:02;;;;;;;1.35;1.00;;;;;;;18.69;47.67;93901.16;528280;28;840;-49
2023/10/09 00:06:23;;;;;;;1.40;0.90;;;;;;;18.66;47.78;93900.28;525982;28;1656;-49
2023/10/09 00:06:40;;;;;;;3.78;1.20;;;;;;;18.66;47.97;93905.13;526072;28;891;-49
2023/10/09 00:06:59;;;;;;;2.60;0.95;;;;;;;18.64;47.95;93897.34;526078;28;896;-49
2023/10/09 00:07:16;;;;;;;1.40;0.93;;;;;;;18.63;48.04;93900.69;526068;28;817;-48
2023/10/09 00:07:32;;;;;;;1.70;1.00;;;;;;;18.62;47.94;93900.00;526019;28;937;-47
2023/10/09 00:07:47;;;;;;;2.60;1.10;;;;;;;18.63;48.10;93903.50;526099;28;872;-49
2023/10/09 00:08:03;;;;;;;4.15;1.23;;;;;;;18.62;48.14;93896.44;525989;28;1045;-47
2023/10/09 00:08:22;;;;;;;3.30;1.17;;;;;;;18.60;48.15;93896.31;528343;28;875;-47
2023/10/09 00:08:39;;;;;;;3.08;1.27;;;;;;;18.58;48.07;93901.75;528363;28;847;-48
2023/10/09 00:08:55;;;;;;;2.83;1.40;;;;;;;18.58;48.16;93904.56;528135;28;900;-47
2023/10/09 00:09:46;;;;;;;1.70;1.13;;;;;;;18.56;48.03;93907.19;528237;28;872;-47
2023/10/09 00:10:11;;;;;;;4.97;1.38;;;;;;;18.56;48.27;93919.09;528235;28;1099;-48
2023/10/09 00:10:35;;;;;;;3.60;1.13;;;;;;;18.53;48.29;93911.16;528293;28;1032;-49
2023/10/09 00:10:54;;;;;;;1.88;1.10;;;;;;;18.53;48.13;93917.50;528217;28;907;-49
2023/10/09 00:11:16;;;;;;;1.58;1.00;;;;;;;18.53;48.28;93911.91;528162;28;923;-48
2023/10/09 00:11:38;;;;;;;1.48;1.05;;;;;;;18.51;48.14;93920.16;528241;28;804;-47
2023/10/09 00:11:57;;;;;;;2.10;0.90;;;;;;;18.31;48.34;93887.91;528249;28;850;-49
2023/10/09 00:12:22;;;;;;;3.25;1.10;;;;;;;18.50;48.28;93920.72;528252;28;931;-49
2023/10/09 00:12:37;;;;;;;2.90;1.00;;;;;;;18.51;48.45;93919.41;528319;28;947;-48
2023/10/09 00:12:52;;;;;;;1.87;1.00;;;;;;;18.50;48.24;93920.72;528242;28;1027;-49
2023/10/09 00:13:09;;;;;;;1.83;1.20;;;;;;;18.49;48.31;93913.69;528275;28;837;-47
2023/10/09 00:13:30;;;;;;;1.85;1.20;;;;;;;18.49;48.41;93924.88;528303;28;879;-48
2023/10/09 00:13:51;;;;;;;1.95;1.10;;;;;;;18.49;48.48;93922.81;528276;28;848;-49
2023/10/09 00:14:06;;;;;;;3.55;1.27;;;;;;;18.48;48.54;93920.59;528325;28;997;-47
2023/10/09 00:14:21;;;;;;;4.32;1.30;;;;;;;18.38;48.42;93909.41;528213;28;966;-48
2023/10/09 00:14:38;;;;;;;2.50;1.10;;;;;;;18.46;48.28;93921.19;528308;28;765;-49
2023/10/09 00:14:55;;;;;;;2.85;1.30;;;;;;;18.46;48.49;93923.97;528255;28;885;-47
2023/10/09 00:15:12;;;;;;;3.45;1.20;;;;;;;18.45;48.41;93925.28;528178;28;1639;-47
2023/10/09 00:15:28;;;;;;;1.45;0.90;;;;;;;18.44;48.41;93925.84;528308;28;826;-47
2023/10/09 00:15:45;;;;;;;1.77;0.93;;;;;;;18.39;48.53;93919.25;528202;28;1918;-48
2023/10/09 00:16:14;;;;;;;2.03;1.05;;;;;;;18.42;48.35;93929.25;525912;28;833;-48
2023/10/09 00:16:32;;;;;;;2.28;0.95;;;;;;;18.40;48.58;93923.50;526034;28;871;-48
2023/10/09 00:16:48;;;;;;;3.30;1.10;;;;;;;18.40;48.34;93923.50;525925;28;882;-48
2023/10/09 00:17:31;;;;;;;0.93;0.90;;;;;;;18.37;48.49;93926.75;526086;28;730;-48
2023/10/09 00:17:46;;;;;;;1.50;1.20;;;;;;;18.33;48.35;93923.66;526151;28;1282;-50
2023/10/09 00:18:12;;;;;;;1.38;1.10;;;;;;;18.32;48.52;93930.59;528240;28;828;-49
2023/10/09 00:18:33;;;;;;;1.77;1.10;;;;;;;18.29;48.44;93920.56;528234;28;896;-48
2023/10/09 00:18:53;;;;;;;3.00;1.30;;;;;;;18.26;48.46;93930.84;528170;28;915;-47
2023/10/09 00:19:20;;;;;;;3.67;1.20;;;;;;;18.25;48.83;93920.28;528275;28;872;-48
2023/10/09 00:19:36;;;;;;;1.85;0.80;;;;;;;18.19;48.78;93926.88;528267;28;905;-48
2023/10/09 00:19:54;;;;;;;1.63;0.70;;;;;;;18.19;48.68;93931.75;528196;28;916;-48
2023/10/09 00:20:21;;;;;;;1.88;0.80;;;;;;;18.18;48.81;93924.69;528234;28;836;-48
2023/10/09 00:20:42;;;;;;;1.10;1.00;;;;;;;18.15;48.81;93917.47;527934;28;892;-47
2023/10/09 00:21:11;;;;;;;1.88;1.15;;;;;;;18.12;48.83;93916.59;528098;28;1192;-47
2023/10/09 00:21:34;;;;;;;2.60;0.90;;;;;;;18.08;49.03;93918.38;528230;28;917;-48
2023/10/09 00:21:50;;;;;;;1.02;0.85;;;;;;;18.06;49.06;93918.94;528166;28;948;-48
2023/10/09 00:22:10;;;;;;;1.23;1.00;;;;;;;18.04;49.33;93918.78;528316;28;852;-47
2023/10/09 00:22:26;;;;;;;2.42;1.30;;;;;;;18.03;49.01;93914.53;528070;28;1297;-47
2023/10/09 00:22:43;;;;;;;2.08;1.27;;;;;;;18.03;49.30;93908.94;528020;28;900;-48
2023/10/09 00:22:58;;;;;;;3.33;1.05;;;;;;;18.02;49.16;93901.88;528144;28;866;-49
2023/10/09 00:23:15;;;;;;;2.10;0.90;;;;;;;18.03;49.37;93911.00;528086;28;873;-48
2023/10/09 00:23:33;;;;;;;1.48;0.90;;;;;;;18.01;49.34;93906.00;526885;28;1342;-49
2023/10/09 00:23:59;;;;;;;1.95;1.08;;;;;;;18.01;49.16;93914.38;526035;28;825;-48
2023/10/09 00:24:23;;;;;;;4.40;0.98;;;;;;;18.01;49.23;93905.25;527318;28;1122;-47
2023/10/09 00:24:45;;;;;;;1.50;0.90;;;;;;;17.98;49.69;93909.97;530414;27;913;-48
2023/10/09 00:25:21;;;;;;;2.38;0.90;;;;;;;17.98;49.25;93903.63;530345;27;869;-48
2023/10/09 00:25:40;;;;;;;1.35;0.90;;;;;;;17.96;49.39;93903.47;530318;27;901;-47
2023/10/09 00:26:12;;;;;;;2.65;0.95;;;;;;;17.97;49.38;93907.75;530180;27;1249;-48
2023/10/09 00:26:31;;;;;;;2.40;1.13;;;;;;;17.95;49.37;93905.53;530402;27;930;-48
2023/10/09 00:26:46;;;;;;;2.10;0.93;;;;;;;17.94;49.40;93904.06;530314;27;1049;-49
2023/10/09 00:27:11;;;;;;;3.65;0.90;;;;;;;17.94;49.27;93909.66;530264;27;915;-49
2023/10/09 00:27:31;;;;;;;4.65;1.08;;;;;;;17.73;49.36;93880.81;530394;27;875;-48
2023/10/09 00:27:47;;;;;;;1.58;0.95;;;;;;;17.90;49.51;93906.56;530387;27;816;-49
2023/10/09 00:28:03;;;;;;;1.70;0.95;;;;;;;17.90;49.50;93903.03;530394;27;816;-49
2023/10/09 00:28:21;;;;;;;1.17;1.00;;;;;;;17.89;49.48;93907.13;530379;27;798;-48
2023/10/09 00:28:38;;;;;;;2.60;1.00;;;;;;;17.89;49.43;93907.13;530419;27;836;-47
2023/10/09 00:28:53;;;;;;;3.83;1.00;;;;;;;17.88;49.53;93912.00;530394;27;988;-47
2023/10/09 00:29:14;;;;;;;4.07;1.00;;;;;;;17.88;49.55;93912.00;530237;27;816;-49
2023/10/09 00:29:34;;;;;;;0.90;0.82;;;;;;;17.87;49.51;93907.75;530258;27;929;-48
2023/10/09 00:29:54;;;;;;;1.10;0.93;;;;;;;17.87;49.37;93912.56;530301;27;907;-50
2023/10/09 00:30:18;;;;;;;0.90;0.90;;;;;;;17.86;49.51;93908.31;530290;27;951;-49
2023/10/09 00:30:35;;;;;;;1.13;0.98;;;;;;;17.85;49.37;93915.97;530269;27;1541;-48
2023/10/09 00:30:52;;;;;;;3.10;1.15;;;;;;;17.85;49.48;93915.22;530217;27;1099;-48
2023/10/09 00:31:14;;;;;;;3.40;1.20;;;;;;;17.85;49.61;93915.97;530410;27;832;-47
2023/10/09 00:31:36;;;;;;;2.10;1.00;;;;;;;17.85;49.54;93918.00;530285;27;893;-47
2023/10/09 00:31:56;;;;;;;2.55;1.10;;;;;;;17.73;49.53;93900.38;530348;27;925;-49
2023/10/09 00:32:26;;;;;;;4.03;1.27;;;;;;;17.84;49.62;93917.31;530394;27;939;-48
2023/10/09 00:33:26;;;;;;;1.73;1.02;;;;;;;17.81;49.54;93915.66;521705;28;834;-48
2023/10/09 00:33:45;;;;;;;1.00;0.70;;;;;;;17.81;49.69;93906.53;521600;28;1506;-48
2023/10/09 00:34:06;;;;;;;1.80;0.98;;;;;;;17.81;49.74;93914.94;530265;27;845;-48
2023/10/09 00:34:22;;;;;;;3.15;1.17;;;;;;;17.80;49.80;93913.47;530346;27;899;-48
2023/10/09 00:34:39;;;;;;;2.83;0.98;;;;;;;17.78;49.85;93907.75;530362;27;867;-47
2023/10/09 00:34:58;;;;;;;1.00;0.80;;;;;;;17.80;49.72;93916.25;530379;27;1055;-47
2023/10/09 00:35:36;;;;;;;2.60;0.88;;;;;;;17.79;49.80;93918.31;530243;27;876;-48
2023/10/09 00:35:54;;;;;;;3.00;1.00;;;;;;;17.53;49.71;93876.50;530047;27;1980;-47
2023/10/09 00:36:09;;;;;;;1.95;1.10;;;;;;;17.75;49.86;93912.44;530375;27;890;-48
2023/10/09 00:36:28;;;;;;;1.52;1.00;;;;;;;17.75;49.80;93912.44;530323;27;865;-48
2023/10/09 00:36:52;;;;;;;1.40;0.90;;;;;;;17.73;49.98;93906.69;530320;27;900;-47
2023/10/09 00:37:33;;;;;;;0.90;0.90;;;;;;;17.75;50.01;93906.09;530384;27;950;-49
2023/10/09 00:37:47;;;;;;;4.88;1.30;;;;;;;17.72;50.10;93910.78;529823;27;1684;-49
2023/10/09 00:38:33;;;;;;;4.38;1.13;;;;;;;17.71;50.07;93906.53;530302;27;885;-48
2023/10/09 00:38:44;;;;;;;1.70;0.75;;;;;;;17.68;49.86;93895.78;529614;27;1321;-48
2023/10/09 00:39:11;;;;;;;0.82;0.70;;;;;;;17.69;49.92;93909.19;530389;27;891;-48
2023/10/09 00:39:57;;;;;;;1.67;1.02;;;;;;;17.66;50.11;93899.19;530278;27;738;-48
2023/10/09 00:40:28;;;;;;;1.70;0.90;;;;;;;17.66;50.16;93904.75;530364;27;862;-48
2023/10/09 00:40:46;;;;;;;1.58;1.17;;;;;;;17.64;49.96;93901.81;530280;27;968;-48
2023/10/09 00:41:10;;;;;;;2.83;1.25;;;;;;;17.64;50.20;93910.19;530295;27;914;-49
2023/10/09 00:41:26;;;;;;;1.30;1.10;;;;;;;17.63;50.11;93913.59;530386;27;852;-49
2023/10/09 00:41:41;;;;;;;1.10;0.93;;;;;;;17.62;50.13;93910.03;530335;27;864;-51
2023/10/09 00:41:58;;;;;;;1.17;1.08;;;;;;;17.52;50.03;93895.31;530403;27;828;-48
2023/10/09 00:42:25;;;;;;;1.85;1.10;;;;;;;17.60;50.04;93909.91;530298;27;1111;-48
2023/10/09 00:42:40;;;;;;;2.17;1.00;;;;;;;17.60;50.07;93911.94;530357;27;859;-48
2023/10/09 00:42:56;;;;;;;1.37;1.07;;;;;;;17.58;50.28;93923.72;530347;27;836;-47
2023/10/09 00:43:13;;;;;;;3.43;1.03;;;;;;;17.59;50.19;93918.84;530336;27;884;-48
2023/10/09 00:43:29;;;;;;;3.95;1.05;;;;;;;17.57;50.18;93918.69;530373;27;892;-49
2023/10/09 00:43:45;;;;;;;2.50;1.20;;;;;;;17.59;50.19;93919.59;530294;27;1735;-49
2023/10/09 00:44:00;;;;;;;2.90;1.17;;;;;;;17.58;50.28;93917.38;530343;27;801;-48
2023/10/09 00:44:15;;;;;;;2.00;1.00;;;;;;;17.59;50.29;93927.22;530315;27;793;-48
2023/10/09 00:44:38;;;;;;;1.10;1.00;;;;;;;17.58;50.29;93920.19;530266;27;1495;-50
2023/10/09 00:44:55;;;;;;;2.08;1.23;;;;;;;17.58;50.23;93920.91;530296;27;1035;-49
2023/10/09 00:45:16;;;;;;;1.85;1.30;;;;;;;17.58;50.36;93923.72;530243;27;966;-48
2023/10/09 00:45:32;;;;;;;2.00;1.38;;;;;;;17.58;50.44;93926.50;530308;27;864;-49
2023/10/09 00:45:50;;;;;;;1.75;1.10;;;;;;;17.57;50.38;93916.63;530332;27;967;-49
2023/10/09 00:46:23;;;;;;;1.70;1.00;;;;;;;17.57;50.42;93919.44;528119;28;965;-47
2023/10/09 00:46:42;;;;;;;2.13;1.10;;;;;;;17.56;50.54;93914.44;528097;28;907;-47
2023/10/09 00:47:07;;;;;;;2.05;1.17;;;;;;;17.54;50.63;93926.19;528011;28;955;-48
2023/10/09 00:47:34;;;;;;;4.40;1.20;;;;;;;17.52;50.63;93919.72;528069;28;848;-48
2023/10/09 00:47:49;;;;;;;4.03;1.20;;;;;;;17.48;50.86;93920.09;528157;28;931;-47
2023/10/09 00:48:06;;;;;;;1.90;1.07;;;;;;;17.49;50.68;93923.63;528085;28;824;-49
2023/10/09 00:48:30;;;;;;;2.03;1.10;;;;;;;17.49;50.53;93923.63;528114;28;856;-48
2023/10/09 00:48:47;;;;;;;2.37;1.20;;;;;;;17.47;50.72;93915.84;528015;28;1080;-52
2023/10/09 00:49:03;;;;;;;2.30;1.23;;;;;;;17.48;50.72;93916.59;528017;28;882;-51
2023/10/09 00:49:22;;;;;;;1.45;1.10;;;;;;;17.48;50.62;93919.38;528007;28;860;-49
2023/10/09 00:49:43;;;;;;;1.65;1.20;;;;;;;17.42;50.77;93919.66;528089;28;894;-48
2023/10/09 00:50:21;;;;;;;4.13;1.48;;;;;;;17.48;50.71;93922.19;528029;28;964;-48
2023/10/09 00:50:38;;;;;;;2.30;1.20;;;;;;;17.47;50.74;93927.03;528156;28;892;-47
2023/10/09 00:50:54;;;;;;;1.90;1.00;;;;;;;17.48;50.89;93924.97;526579;28;885;-47
2023/10/09 00:51:16;;;;;;;2.38;1.10;;;;;;;17.47;50.99;93927.03;528043;28;840;-49
2023/10/09 00:51:35;;;;;;;3.78;1.40;;;;;;;17.48;50.90;93933.34;528072;28;880;-48
2023/10/09 00:51:56;;;;;;;1.80;1.00;;;;;;;17.47;50.91;93929.06;528024;28;915;-47
2023/10/09 00:52:18;;;;;;;1.45;1.20;;;;;;;17.47;50.80;93931.88;528064;28;951;-48
2023/10/09 00:52:43;;;;;;;1.20;1.05;;;;;;;17.46;50.89;93936.69;525957;28;850;-51
2023/10/09 00:53:11;;;;;;;3.45;1.17;;;;;;;17.47;50.88;93937.44;525976;28;932;-47
2023/10/09 00:53:33;;;;;;;1.60;1.30;;;;;;;17.39;51.16;93931.97;521798;28;921;-48
2023/10/09 00:53:52;;;;;;;1.48;1.38;;;;;;;17.44;51.18;93942.13;521785;28;955;-47
2023/10/09 00:54:08;;;;;;;1.85;1.25;;;;;;;17.44;51.13;93939.34;519805;28;880;-49
2023/10/09 00:54:27;;;;;;;2.83;1.23;;;;;;;17.44;51.04;93950.50;521134;28;877;-48
2023/10/09 00:54:46;;;;;;;1.75;1.02;;;;;;;17.43;50.98;93949.75;522775;28;909;-50
2023/10/09 00:55:05;;;;;;;1.42;1.30;;;;;;;17.42;50.95;93948.31;523970;28;805;-48
2023/10/09 00:55:27;;;;;;;2.70;1.45;;;;;;;17.40;51.01;93950.19;523779;28;869;-47
2023/10/09 00:56:19;;;;;;;1.27;1.13;;;;;;;17.26;50.99;93930.31;523936;28;1006;-47
2023/10/09 00:56:44;;;;;;;1.90;1.00;;;;;;;17.38;51.19;93955.63;523868;28;868;-47
2023/10/09 00:57:06;;;;;;;1.73;1.23;;;;;;;17.37;51.30;93954.16;521770;28;943;-48
2023/10/09 00:57:24;;;;;;;1.70;1.20;;;;;;;17.37;51.10;93951.34;523850;28;900;-49
2023/10/09 00:57:56;;;;;;;3.40;1.33;;;;;;;17.34;51.26;93950.47;523879;28;877;-48
2023/10/09 00:58:13;;;;;;;1.80;1.30;;;;;;;17.36;51.06;93955.47;524896;28;979;-49
2023/10/09 00:58:31;;;;;;;1.75;1.40;;;;;;;17.35;51.37;93954.00;525922;28;918;-48
2023/10/09 00:58:49;;;;;;;3.00;1.37;;;;;;;17.35;51.31;93951.19;523844;28;878;-47
2023/10/09 00:59:13;;;;;;;2.38;0.90;;;;;;;17.34;51.31;93947.69;523872;28;816;-47
2023/10/09 00:59:30;;;;;;;2.17;1.20;;;;;;;17.33;51.43;93951.78;524442;28;963;-47
2023/10/09 00:59:50;;;;;;;2.45;1.38;;;;;;;17.32;51.35;93950.34;525966;28;1183;-48
2023/10/09 01:00:13;;;;;;;3.60;1.30;;;;;;;17.24;51.23;93932.19;525867;28;936;-48
2023/10/09 01:00:59;;;;;;;3.78;1.58;;;;;;;17.29;51.38;93939.56;526030;28;828;-47
2023/10/09 01:01:17;;;;;;;4.23;1.63;;;;;;;17.23;51.28;93930.75;525992;28;793;-49
2023/10/09 01:01:39;;;;;;;2.67;1.27;;;;;;;17.28;51.40;93938.13;525977;28;888;-48
2023/10/09 01:02:04;;;;;;;1.70;1.08;;;;;;;17.27;51.42;93948.53;525892;28;908;-47
2023/10/09 01:02:21;;;;;;;1.45;1.10;;;;;;;17.26;51.37;93941.47;527782;28;939;-48
2023/10/09 01:02:41;;;;;;;3.22;1.20;;;;;;;17.25;51.41;93942.06;528248;28;1022;-47
2023/10/09 01:03:24;;;;;;;3.53;1.27;;;;;;;17.24;51.60;93941.31;528215;28;826;-48
2023/10/09 01:03:40;;;;;;;3.25;1.20;;;;;;;17.21;51.42;93938.97;527674;28;1373;-47
2023/10/09 01:04:14;;;;;;;3.53;1.23;;;;;;;17.21;51.68;93936.16;528159;28;913;-48
2023/10/09 01:04:40;;;;;;;1.83;1.13;;;;;;;17.19;51.70;93930.44;528026;28;904;-48
2023/10/09 01:04:55;;;;;;;4.72;1.40;;;;;;;17.18;51.54;93931.75;525924;28;956;-49
2023/10/09 01:05:20;;;;;;;5.22;1.70;;;;;;;17.19;51.60;93930.44;525903;28;915;-49
2023/10/09 01:05:36;;;;;;;3.40;1.60;;;;;;;17.17;51.65;93930.28;525974;28;1199;-51
2023/10/09 01:05:58;;;;;;;2.20;1.20;;;;;;;17.15;51.72;93936.41;525808;28;1623;-48
2023/10/09 01:06:33;;;;;;;1.30;1.00;;;;;;;17.13;51.83;93935.56;525961;28;785;-50
2023/10/09 01:07:04;;;;;;;1.58;1.10;;;;;;;17.11;51.88;93933.31;528209;28;848;-48
2023/10/09 01:07:25;;;;;;;2.35;1.30;;;;;;;17.08;52.00;93926.13;528213;28;880;-48
2023/10/09 01:07:44;;;;;;;2.25;1.25;;;;;;;17.08;51.69;93934.50;525956;28;946;-47
2023/10/09 01:07:59;;;;;;;2.85;1.35;;;;;;;17.08;51.97;93936.56;525907;28;876;-48
2023/10/09 01:08:25;;;;;;;2.77;1.20;;;;;;;17.07;52.03;93935.81;525973;28;801;-48
2023/10/09 01:09:37;;;;;;;2.83;1.70;;;;;;;17.02;52.16;93936.09;519399;28;1235;-48
2023/10/09 01:09:43;;;;;;;1.40;1.13;;;;;;;17.04;51.91;93931.41;526001;28;846;-48
2023/10/09 01:09:55;;;;;;;3.65;1.40;;;;;;;16.99;52.20;93935.19;524361;28;1479;-48
2023/10/09 01:10:11;;;;;;;4.65;1.38;;;;;;;16.98;52.08;93935.78;525905;28;836;-48
2023/10/09 01:10:34;;;;;;;4.03;1.40;;;;;;;16.97;52.12;93929.44;527516;28;931;-49
2023/10/09 01:11:34;;;;;;;2.22;1.52;;;;;;;16.90;52.31;93933.06;523730;28;1403;-48
2023/10/09 01:12:17;;;;;;;3.30;1.50;;;;;;;16.87;52.51;93931.44;528198;28;805;-48
2023/10/09 01:12:32;;;;;;;6.35;1.60;;;;;;;16.83;52.56;93936.69;528163;28;895;-47
2023/10/09 01:12:54;;;;;;;5.83;1.50;;;;;;;16.84;52.43;93932.59;528180;28;805;-49
2023/10/09 01:13:10;;;;;;;8.02;1.35;;;;;;;16.83;52.60;93935.97;528197;28;825;-49
2023/10/09 01:13:38;;;;;;;8.00;1.33;;;;;;;16.80;52.55;93937.13;528192;28;796;-48
2023/10/09 01:13:59;;;;;;;3.55;1.50;;;;;;;16.79;52.60;93933.59;528135;28;1187;-48
2023/10/09 01:14:15;;;;;;;4.20;1.25;;;;;;;16.79;52.71;93938.44;528192;28;907;-47
2023/10/09 01:14:36;;;;;;;4.55;1.38;;;;;;;16.78;52.63;93934.19;528069;28;945;-47
2023/10/09 01:14:53;;;;;;;2.22;1.30;;;;;;;16.78;52.80;93931.41;528076;28;933;-48
2023/10/09 01:15:17;;;;;;;1.35;1.17;;;;;;;16.76;52.73;93937.56;528142;28;923;-47
2023/10/09 01:15:36;;;;;;;2.15;1.13;;;;;;;16.76;52.72;93939.59;528162;28;829;-50
2023/10/09 01:15:51;;;;;;;2.10;1.08;;;;;;;16.73;52.74;93933.13;525726;28;1989;-47
2023/10/09 01:16:15;;;;;;;1.73;1.30;;;;;;;16.74;52.81;93942.22;525927;28;1571;-48
2023/10/09 01:16:31;;;;;;;2.97;1.20;;;;;;;16.72;52.78;93942.06;525943;28;954;-47
2023/10/09 01:16:47;;;;;;;1.55;1.20;;;;;;;16.70;52.69;93948.22;523834;28;908;-48
2023/10/09 01:17:08;;;;;;;1.40;1.20;;;;;;;16.68;52.81;93940.44;523722;28;935;-48
2023/10/09 01:17:35;;;;;;;2.90;1.23;;;;;;;16.68;52.93;93945.25;523821;28;881;-47
2023/10/09 01:17:50;;;;;;;5.20;1.30;;;;;;;16.62;53.07;93939.94;523772;28;906;-49
2023/10/09 01:18:07;;;;;;;2.23;1.40;;;;;;;16.66;52.97;93947.88;521761;28;846;-48
2023/10/09 01:18:31;;;;;;;1.42;1.33;;;;;;;16.66;53.07;93947.88;521804;28;932;-47
2023/10/09 01:18:52;;;;;;;1.30;1.17;;;;;;;16.66;53.03;93954.22;523800;28;900;-50
2023/10/09 01:19:13;;;;;;;1.42;1.05;;;;;;;16.65;52.92;93952.72;523860;28;905;-49
2023/10/09 01:19:30;;;;;;;2.00;1.35;;;;;;;16.64;52.95;93956.84;524245;28;863;-50
2023/10/09 01:19:47;;;;;;;2.28;1.50;;;;;;;16.63;53.07;93952.56;525921;28;821;-48
2023/10/09 01:20:15;;;;;;;3.20;1.38;;;;;;;16.63;53.02;93949.78;527413;28;900;-47
2023/10/09 01:20:40;;;;;;;1.67;1.30;;;;;;;16.62;53.18;93953.16;528186;28;934;-48
2023/10/09 01:20:56;;;;;;;2.35;1.40;;;;;;;16.62;53.05;93956.69;528163;28;885;-48
2023/10/09 01:21:14;;;;;;;1.70;1.20;;;;;;;16.62;52.94;93953.16;528123;28;793;-48
2023/10/09 01:21:31;;;;;;;1.35;1.15;;;;;;;16.60;53.10;93959.31;528200;28;809;-47
2023/10/09 01:21:47;;;;;;;1.92;1.23;;;;;;;16.60;52.99;93948.16;528158;28;1628;-49
2023/10/09 01:22:12;;;;;;;2.10;1.23;;;;;;;16.53;53.10;93940.63;528081;28;866;-49
2023/10/09 01:22:27;;;;;;;2.92;1.55;;;;;;;16.59;53.00;93955.03;525918;28;926;-49
2023/10/09 01:22:43;;;;;;;2.10;1.40;;;;;;;16.54;53.00;93944.91;525916;28;794;-49
2023/10/09 01:23:02;;;;;;;1.50;1.10;;;;;;;16.60;52.89;93958.56;525863;28;943;-48
2023/10/09 01:23:18;;;;;;;2.85;1.40;;;;;;;16.57;53.08;93948.56;525936;28;892;-47
2023/10/09 01:23:34;;;;;;;2.75;1.13;;;;;;;16.57;53.12;93946.50;525854;28;1134;-51
2023/10/09 01:24:19;;;;;;;1.80;1.20;;;;;;;16.55;52.98;93954.72;528443;28;1169;-48
2023/10/09 01:24:38;;;;;;;3.35;1.42;;;;;;;16.54;53.07;93953.25;530242;28;935;-47
2023/10/09 01:24:55;;;;;;;3.33;1.23;;;;;;;16.53;52.97;93957.34;530286;28;899;-48
2023/10/09 01:25:11;;;;;;;2.22;1.10;;;;;;;16.53;53.00;93957.34;530304;28;923;-49
2023/10/09 01:25:38;;;;;;;2.00;1.38;;;;;;;16.47;53.10;93951.25;530240;28;1116;-50
2023/10/09 01:25:54;;;;;;;3.85;1.38;;;;;;;16.47;53.11;93950.53;530200;28;975;-48
2023/10/09 01:26:09;;;;;;;3.07;1.40;;;;;;;16.47;53.13;93956.84;530042;28;1198;-47
2023/10/09 01:26:25;;;;;;;2.03;1.10;;;;;;;16.39;53.20;93939.47;530319;28;864;-49
2023/10/09 01:26:46;;;;;;;2.33;1.20;;;;;;;16.47;53.22;93954.06;527945;28;920;-47
2023/10/09 01:27:05;;;;;;;2.35;1.33;;;;;;;16.46;53.13;93954.59;527954;28;987;-48
2023/10/09 01:27:24;;;;;;;2.50;1.30;;;;;;;16.46;53.28;93947.00;528054;28;903;-51
2023/10/09 01:27:40;;;;;;;4.38;1.95;;;;;;;16.45;53.23;93947.56;527968;28;896;-46
2023/10/09 01:27:56;;;;;;;5.22;1.90;;;;;;;16.45;53.24;93945.53;527998;28;936;-47
2023/10/09 01:28:15;;;;;;;3.72;1.20;;;;;;;16.44;53.16;93952.41;528007;28;887;-47
2023/10/09 01:28:31;;;;;;;1.33;1.23;;;;;;;16.43;53.15;93948.16;528674;28;845;-49
2023/10/09 01:28:49;;;;;;;3.70;1.42;;;;;;;16.42;53.07;93951.50;530317;28;881;-48
2023/10/09 01:29:14;;;;;;;4.00;1.25;;;;;;;16.41;53.27;93947.25;530201;28;1039;-48
2023/10/09 01:29:29;;;;;;;2.38;1.30;;;;;;;16.40;53.21;93946.50;530313;28;828;-50
2023/10/09 01:29:45;;;;;;;2.30;1.20;;;;;;;16.40;53.22;93948.56;530130;28;868;-47
2023/10/09 01:30:01;;;;;;;1.77;1.27;;;;;;;16.39;53.13;93945.06;530220;28;1021;-48
2023/10/09 01:30:16;;;;;;;1.90;1.27;;;;;;;16.39;53.37;93947.09;530334;28;1106;-48
2023/10/09 01:30:33;;;;;;;1.47;1.00;;;;;;;16.39;53.42;93952.66;530198;28;793;-47
2023/10/09 01:30:48;;;;;;;1.20;1.10;;;;;;;16.39;53.20;93949.88;530322;28;864;-48
2023/10/09 01:31:06;;;;;;;1.52;1.40;;;;;;;16.38;53.33;93945.59;530225;28;1172;-48
2023/10/09 01:31:21;;;;;;;1.70;1.48;;;;;;;16.37;53.28;93953.22;530241;28;833;-49
2023/10/09 01:31:44;;;;;;;1.30;1.20;;;;;;;16.31;53.50;93930.44;530288;28;943;-49
2023/10/09 01:32:02;;;;;;;4.13;1.60;;;;;;;16.36;53.33;93946.19;530568;28;937;-47
2023/10/09 01:32:19;;;;;;;4.22;1.17;;;;;;;16.36;53.36;93954.56;530669;27;1148;-48
2023/10/09 01:32:34;;;;;;;3.90;1.00;;;;;;;16.34;53.49;93948.06;530743;27;822;-47
2023/10/09 01:32:52;;;;;;;2.03;1.25;;;;;;;16.35;53.34;93949.56;530610;27;837;-50
2023/10/09 01:33:24;;;;;;;2.47;1.40;;;;;;;16.35;53.44;93946.78;530762;27;924;-48
2023/10/09 01:33:39;;;;;;;2.10;1.30;;;;;;;16.34;53.24;93950.84;530698;27;855;-47
2023/10/09 01:33:59;;;;;;;1.85;1.35;;;;;;;16.33;53.24;93950.13;530615;27;904;-47
2023/10/09 01:34:15;;;;;;;1.35;1.15;;;;;;;16.33;53.45;93955.69;530742;27;967;-49
2023/10/09 01:34:54;;;;;;;1.67;1.20;;;;;;;16.24;53.63;93944.47;530674;27;690;-49
2023/10/09 01:35:19;;;;;;;1.55;1.30;;;;;;;16.32;53.43;93951.44;530701;27;883;-50
2023/10/09 01:35:38;;;;;;;2.25;1.40;;;;;;;16.29;53.32;93952.56;530717;27;950;-49
2023/10/09 01:35:59;;;;;;;3.10;1.17;;;;;;;16.30;53.56;93954.06;530625;27;1914;-47
2023/10/09 01:36:15;;;;;;;2.20;1.02;;;;;;;16.29;53.57;93955.38;530685;27;896;-48
2023/10/09 01:36:33;;;;;;;2.25;1.33;;;;;;;16.29;53.53;93958.16;530685;27;1100;-48
2023/10/09 01:36:49;;;;;;;2.15;1.27;;;;;;;16.20;53.61;93947.66;530708;27;979;-48
2023/10/09 01:37:11;;;;;;;2.05;1.50;;;;;;;16.21;53.43;93946.34;530710;27;868;-47
2023/10/09 01:37:28;;;;;;;4.20;1.40;;;;;;;16.25;53.55;93951.50;530754;27;903;-49
2023/10/09 01:37:44;;;;;;;4.85;1.23;;;;;;;16.26;53.47;93955.78;530627;27;933;-47
2023/10/09 01:37:59;;;;;;;4.00;1.13;;;;;;;16.25;53.50;93952.25;530635;27;1149;-49
2023/10/09 01:38:18;;;;;;;1.80;1.03;;;;;;;16.25;53.63;93952.25;528473;28;785;-48
2023/10/09 01:38:40;;;;;;;1.67;1.10;;;;;;;16.25;53.59;93949.47;528400;28;824;-51
2023/10/09 01:38:56;;;;;;;3.10;1.17;;;;;;;16.25;53.50;93957.09;528467;28;806;-50
2023/10/09 01:39:27;;;;;;;3.22;1.50;;;;;;;16.24;53.54;93961.19;528376;28;975;-48
2023/10/09 01:39:44;;;;;;;2.50;1.20;;;;;;;16.24;53.63;93961.19;528333;28;904;-48
2023/10/09 01:40:37;;;;;;;1.85;1.10;;;;;;;16.00;53.53;93923.75;528438;28;744;-50
2023/10/09 01:40:54;;;;;;;2.72;1.15;;;;;;;16.22;53.61;93964.53;528380;28;1082;-48
2023/10/09 01:41:16;;;;;;;2.35;1.30;;;;;;;16.19;53.55;93968.50;530755;27;840;-48
2023/10/09 01:41:34;;;;;;;1.70;1.17;;;;;;;16.19;53.46;93967.75;530655;27;1696;-50
2023/10/09 01:41:58;;;;;;;2.10;1.25;;;;;;;16.15;53.68;93961.84;530609;27;904;-47
2023/10/09 01:42:23;;;;;;;2.08;1.10;;;;;;;16.15;53.74;93968.16;530588;27;908;-48
2023/10/09 01:42:47;;;;;;;1.88;1.20;;;;;;;16.14;53.78;93963.88;530730;27;1016;-49
2023/10/09 01:43:03;;;;;;;1.30;1.20;;;;;;;16.13;53.71;93961.69;530672;27;840;-48
2023/10/09 01:43:21;;;;;;;1.48;1.20;;;;;;;16.12;53.84;93974.88;530712;27;897;-47
2023/10/09 01:43:38;;;;;;;1.70;1.20;;;;;;;16.10;53.81;93968.38;530784;27;805;-49
2023/10/09 01:44:00;;;;;;;1.95;1.00;;;;;;;16.10;53.90;93969.13;530634;27;881;-47